Time;durP1;ratioP1;P1;durP2;ratioP2;P2;SDS_P1;SDS_P2;PMS_P1;PMS_P2;Temp;Humidity;BMP_temperature;BMP_pressure;BME280_temperature;BME280_humidity;BME280_pressure;Samples;Min_cycle;Max_cycle;Signal;HPM_P1;HPM_P2
2023/03/21 00:01:52;;;;;;;;;;;12.20;99.90;;;;;;7332986;19;109616;-64
2023/03/21 00:04:20;;;;;;;;;;;12.20;99.90;;;;;;7332207;19;109654;-64
2023/03/21 00:06:47;;;;;;;;;;;12.20;99.90;;;;;;7331681;19;109362;-64
2023/03/21 00:09:14;;;;;;;;;;;12.20;99.90;;;;;;7331323;19;110037;-65
2023/03/21 00:11:41;;;;;;;;;;;12.20;99.90;;;;;;7330180;19;108720;-64
2023/03/21 00:14:13;;;;;;;;;;;12.20;99.90;;;;;;7336119;19;112222;-64
2023/03/21 00:16:44;;;;;;;;;;;12.20;99.90;;;;;;7334844;19;110259;-64
2023/03/21 00:19:13;;;;;;;;;;;12.20;99.90;;;;;;7340288;19;109412;-65
2023/03/21 00:21:41;;;;;;;;;;;12.10;99.90;;;;;;7342495;19;108870;-64
2023/03/21 00:24:28;;;;;;;;;;;12.10;99.90;;;;;;7341034;19;112114;-64
2023/03/21 00:26:55;;;;;;;;;;;12.10;99.90;;;;;;7336920;19;109296;-64
2023/03/21 00:29:41;;;;;;;;;;;12.10;99.90;;;;;;7337198;19;109888;-64
2023/03/21 00:32:08;;;;;;;;;;;12.00;99.90;;;;;;7338291;19;109323;-64
2023/03/21 00:34:37;;;;;;;;;;;12.00;99.90;;;;;;7334605;19;109888;-64
2023/03/21 00:37:20;;;;;;;;;;;12.00;99.90;;;;;;7337364;19;110690;-65
2023/03/21 00:39:47;;;;;;;;;;;11.90;99.90;;;;;;7334986;19;111746;-65
2023/03/21 00:42:15;;;;;;;;;;;11.90;99.90;;;;;;7337298;19;109169;-64
2023/03/21 00:44:43;;;;;;;;;;;11.90;99.90;;;;;;7338746;19;109641;-64
2023/03/21 00:47:11;;;;;;;;;;;11.90;99.90;;;;;;7338478;19;109098;-64
2023/03/21 00:49:38;;;;;;;;;;;12.00;99.90;;;;;;7337073;19;109970;-64
2023/03/21 00:52:06;;;;;;;;;;;12.00;99.90;;;;;;7336723;19;108877;-65
2023/03/21 00:54:45;;;;;;;;;;;11.90;99.90;;;;;;7337025;19;109549;-64
2023/03/21 00:57:12;;;;;;;;;;;11.90;99.90;;;;;;7336261;19;110015;-64
2023/03/21 00:59:39;;;;;;;;;;;11.90;99.90;;;;;;7335133;19;109312;-64
2023/03/21 01:02:06;;;;;;;;;;;11.90;99.90;;;;;;7338936;19;109757;-64
2023/03/21 01:04:33;;;;;;;;;;;11.90;99.90;;;;;;7337064;19;109082;-64
2023/03/21 01:07:00;;;;;;;;;;;11.90;99.90;;;;;;7342336;19;108843;-65
2023/03/21 01:09:27;;;;;;;;;;;11.90;99.90;;;;;;7340339;19;110999;-64
2023/03/21 01:11:54;;;;;;;;;;;11.80;99.90;;;;;;7348789;19;108376;-63
2023/03/21 01:14:21;;;;;;;;;;;11.80;99.90;;;;;;7350546;19;109014;-65
2023/03/21 01:16:50;;;;;;;;;;;11.80;99.90;;;;;;7344069;19;108317;-63
2023/03/21 01:19:18;;;;;;;;;;;11.70;99.90;;;;;;7351790;19;108136;-65
2023/03/21 01:22:05;;;;;;;;;;;11.70;99.90;;;;;;7348304;19;109739;-63
2023/03/21 01:24:32;;;;;;;;;;;11.70;99.90;;;;;;7340650;19;109160;-65
2023/03/21 01:27:03;;;;;;;;;;;11.70;99.90;;;;;;7340022;19;109908;-64
2023/03/21 01:29:30;;;;;;;;;;;11.70;99.90;;;;;;7342458;19;108500;-65
2023/03/21 01:31:57;;;;;;;;;;;11.70;99.90;;;;;;7337695;19;109002;-65
2023/03/21 01:34:25;;;;;;;;;;;11.70;99.90;;;;;;7337883;19;108263;-65
2023/03/21 01:36:52;;;;;;;;;;;11.70;99.90;;;;;;7335129;19;109174;-65
2023/03/21 01:39:19;;;;;;;;;;;11.60;99.90;;;;;;7340439;19;108414;-65
2023/03/21 01:41:46;;;;;;;;;;;11.70;99.90;;;;;;7333902;19;108834;-64
2023/03/21 01:44:15;;;;;;;;;;;11.60;99.90;;;;;;7337368;19;109799;-64
2023/03/21 01:46:43;;;;;;;;;;;11.60;99.90;;;;;;7335612;19;110272;-65
2023/03/21 01:49:28;;;;;;;;;;;11.70;99.90;;;;;;7341371;19;112590;-64
2023/03/21 01:51:57;;;;;;;;;;;11.60;99.90;;;;;;7333704;19;108562;-65
2023/03/21 01:54:31;;;;;;;;;;;11.70;99.90;;;;;;7334558;19;108586;-65
2023/03/21 01:57:00;;;;;;;;;;;11.60;99.90;;;;;;7336846;19;109210;-64
2023/03/21 01:59:35;;;;;;;;;;;11.60;99.90;;;;;;7338248;19;108663;-64
2023/03/21 02:02:06;;;;;;;;;;;11.60;99.90;;;;;;7335007;19;109315;-65
2023/03/21 02:04:34;;;;;;;;;;;11.60;99.90;;;;;;7336610;19;110576;-66
2023/03/21 02:07:04;;;;;;;;;;;11.60;99.90;;;;;;7334155;19;109938;-65
2023/03/21 02:09:33;;;;;;;;;;;11.70;99.90;;;;;;7337064;19;109341;-65
2023/03/21 02:12:01;;;;;;;;;;;11.60;99.90;;;;;;7342687;19;108989;-66
2023/03/21 02:14:29;;;;;;;;;;;11.60;99.90;;;;;;7337892;19;109235;-64
2023/03/21 02:16:56;;;;;;;;;;;11.60;99.90;;;;;;7336470;19;108754;-65
2023/03/21 02:22:07;;;;;;;;;;;11.60;99.90;;;;;;7336935;19;108749;-63
2023/03/21 02:25:09;;;;;;;;;;;11.60;99.90;;;;;;7336566;19;111597;-67
2023/03/21 02:27:55;;;;;;;;;;;11.60;99.90;;;;;;7332464;19;109511;-63
2023/03/21 02:30:25;;;;;;;;;;;11.70;99.90;;;;;;7329608;19;109190;-64
2023/03/21 02:33:05;;;;;;;;;;;11.70;99.90;;;;;;7330680;19;110539;-65
2023/03/21 02:35:45;;;;;;;;;;;11.70;99.90;;;;;;7335605;19;109540;-64
2023/03/21 02:38:23;;;;;;;;;;;11.70;99.90;;;;;;7328964;19;109844;-64
2023/03/21 02:41:02;;;;;;;;;;;11.60;99.90;;;;;;7331761;19;109495;-64
2023/03/21 02:43:48;;;;;;;;;;;11.60;99.90;;;;;;7333122;19;112812;-64
2023/03/21 02:46:14;;;;;;;;;;;11.60;99.90;;;;;;7325598;19;109217;-64
2023/03/21 02:48:49;;;;;;;;;;;11.60;99.90;;;;;;7326710;19;110567;-64
2023/03/21 02:51:18;;;;;;;;;;;11.60;99.90;;;;;;7330760;19;110301;-64
2023/03/21 02:53:47;;;;;;;;;;;11.60;99.90;;;;;;7328584;19;109869;-63
2023/03/21 02:56:26;;;;;;;;;;;11.60;99.90;;;;;;7327020;19;109238;-64
2023/03/21 02:58:53;;;;;;;;;;;11.60;99.90;;;;;;7335786;19;109840;-64
2023/03/21 03:01:20;;;;;;;;;;;11.70;99.90;;;;;;7331405;19;109020;-64
2023/03/21 03:03:47;;;;;;;;;;;11.70;99.90;;;;;;7334729;19;108899;-64
2023/03/21 03:06:37;;;;;;;;;;;11.70;99.90;;;;;;7331087;19;111935;-64
2023/03/21 03:09:22;;;;;;;;;;;11.70;99.90;;;;;;7330625;19;108706;-64
2023/03/21 03:11:54;;;;;;;;;;;11.70;99.90;;;;;;7328105;19;109824;-64
2023/03/21 03:14:21;;;;;;;;;;;11.60;99.90;;;;;;7326137;19;109778;-65
2023/03/21 03:17:17;;;;;;;;;;;11.60;99.90;;;;;;7327129;19;108683;-64
2023/03/21 03:19:59;;;;;;;;;;;11.60;99.90;;;;;;7330996;19;113744;-65
2023/03/21 03:22:47;;;;;;;;;;;11.60;99.90;;;;;;7334661;19;111666;-65
2023/03/21 03:25:18;;;;;;;;;;;11.70;99.90;;;;;;7331015;19;108383;-65
2023/03/21 03:28:06;;;;;;;;;;;11.60;99.90;;;;;;7330412;19;110267;-66
2023/03/21 03:30:35;;;;;;;;;;;11.60;99.90;;;;;;7329204;19;109000;-65
2023/03/21 03:33:15;;;;;;;;;;;11.60;99.90;;;;;;7327127;19;110259;-65
2023/03/21 03:35:44;;;;;;;;;;;11.60;99.90;;;;;;7326639;19;110361;-65
2023/03/21 03:38:20;;;;;;;;;;;11.60;99.90;;;;;;7329020;19;109449;-63
2023/03/21 03:40:50;;;;;;;;;;;11.60;99.90;;;;;;7327387;19;109305;-65
2023/03/21 03:43:20;;;;;;;;;;;11.60;99.90;;;;;;7324983;19;109275;-63
2023/03/21 03:45:48;;;;;;;;;;;11.60;99.90;;;;;;7331051;19;110842;-65
2023/03/21 03:48:31;;;;;;;;;;;11.70;99.90;;;;;;7337418;19;109064;-65
2023/03/21 03:51:08;;;;;;;;;;;11.70;99.90;;;;;;7339960;19;110670;-65
2023/03/21 03:53:43;;;;;;;;;;;11.80;99.90;;;;;;7339018;19;108561;-65
2023/03/21 03:56:11;;;;;;;;;;;11.80;99.90;;;;;;7338385;19;111411;-65
2023/03/21 03:58:38;;;;;;;;;;;11.80;99.90;;;;;;7334756;19;110107;-65
2023/03/21 04:01:12;;;;;;;;;;;11.80;99.90;;;;;;7337832;19;108767;-64
2023/03/21 04:03:41;;;;;;;;;;;11.80;99.90;;;;;;7334543;19;110493;-66
2023/03/21 04:06:17;;;;;;;;;;;11.80;99.90;;;;;;7344001;19;108843;-66
2023/03/21 04:08:44;;;;;;;;;;;11.80;99.90;;;;;;7337653;19;113615;-66
2023/03/21 04:11:15;;;;;;;;;;;11.70;99.90;;;;;;7339192;19;109724;-67
2023/03/21 04:13:42;;;;;;;;;;;11.70;99.90;;;;;;7339479;19;108740;-66
2023/03/21 04:16:10;;;;;;;;;;;11.70;99.90;;;;;;7338856;19;109464;-66
2023/03/21 04:18:38;;;;;;;;;;;11.80;99.90;;;;;;7338385;19;108539;-66
2023/03/21 04:21:11;;;;;;;;;;;11.80;99.90;;;;;;7338946;19;110276;-66
2023/03/21 04:23:39;;;;;;;;;;;11.80;99.90;;;;;;7340293;19;109956;-66
2023/03/21 04:26:06;;;;;;;;;;;11.70;99.90;;;;;;7337010;19;108935;-67
2023/03/21 04:28:35;;;;;;;;;;;11.70;99.90;;;;;;7341067;19;109647;-66
2023/03/21 04:31:04;;;;;;;;;;;11.70;99.90;;;;;;7340253;19;108962;-66
2023/03/21 04:33:48;;;;;;;;;;;11.70;99.90;;;;;;7339085;19;111881;-66
2023/03/21 04:36:23;;;;;;;;;;;11.70;99.90;;;;;;7336341;19;109145;-66
2023/03/21 04:38:51;;;;;;;;;;;11.70;99.90;;;;;;7340627;19;109061;-66
2023/03/21 04:41:18;;;;;;;;;;;11.70;99.90;;;;;;7338988;19;110962;-66
2023/03/21 04:43:46;;;;;;;;;;;11.70;99.90;;;;;;7338840;19;109780;-66
2023/03/21 04:46:13;;;;;;;;;;;11.70;99.90;;;;;;7338777;19;109779;-66
2023/03/21 04:48:40;;;;;;;;;;;11.70;99.90;;;;;;7337449;19;109275;-66
2023/03/21 04:51:11;;;;;;;;;;;11.70;99.90;;;;;;7342789;19;130012;-66
2023/03/21 04:53:41;;;;;;;;;;;11.70;99.90;;;;;;7340041;19;109446;-66
2023/03/21 04:56:09;;;;;;;;;;;11.70;99.90;;;;;;7339267;19;111212;-66
2023/03/21 04:58:35;;;;;;;;;;;11.70;99.90;;;;;;7336551;19;108435;-66
2023/03/21 05:01:04;;;;;;;;;;;11.70;99.90;;;;;;7339651;19;108922;-66
2023/03/21 05:03:33;;;;;;;;;;;11.70;99.90;;;;;;7336729;19;109262;-66
2023/03/21 05:06:00;;;;;;;;;;;11.70;99.90;;;;;;7339355;19;108532;-66
2023/03/21 05:08:27;;;;;;;;;;;11.70;99.90;;;;;;7337680;19;109427;-66
2023/03/21 05:10:54;;;;;;;;;;;11.70;99.90;;;;;;7339712;19;109125;-66
2023/03/21 05:13:21;;;;;;;;;;;11.70;99.90;;;;;;7344087;19;109964;-66
2023/03/21 05:15:48;;;;;;;;;;;11.70;99.90;;;;;;7336108;19;109329;-66
2023/03/21 05:18:23;;;;;;;;;;;11.70;99.90;;;;;;7336053;19;108461;-66
2023/03/21 05:20:54;;;;;;;;;;;11.70;99.90;;;;;;7335556;19;108671;-66
2023/03/21 05:23:21;;;;;;;;;;;11.70;99.90;;;;;;7336629;19;109923;-66
2023/03/21 05:25:48;;;;;;;;;;;11.70;99.90;;;;;;7334744;19;110271;-66
2023/03/21 05:28:18;;;;;;;;;;;11.70;99.90;;;;;;7333658;19;108827;-66
2023/03/21 05:30:45;;;;;;;;;;;11.70;99.90;;;;;;7337050;19;109288;-66
2023/03/21 05:33:12;;;;;;;;;;;11.80;99.90;;;;;;7335603;19;109349;-66
2023/03/21 05:35:40;;;;;;;;;;;11.80;99.90;;;;;;7341087;19;109096;-66
2023/03/21 05:38:07;;;;;;;;;;;11.80;99.90;;;;;;7335974;19;108880;-66
2023/03/21 05:40:34;;;;;;;;;;;11.80;99.90;;;;;;7340642;19;108606;-66
2023/03/21 05:43:01;;;;;;;;;;;11.80;99.90;;;;;;7333310;19;109409;-66
2023/03/21 05:45:28;;;;;;;;;;;11.80;99.90;;;;;;7337869;19;108968;-66
2023/03/21 05:47:55;;;;;;;;;;;11.80;99.90;;;;;;7338271;19;109587;-66
2023/03/21 05:50:22;;;;;;;;;;;11.80;99.90;;;;;;7336714;19;109220;-66
2023/03/21 05:52:50;;;;;;;;;;;11.80;99.90;;;;;;7336224;19;109727;-66
2023/03/21 05:55:18;;;;;;;;;;;11.80;99.90;;;;;;7336548;19;108762;-66
2023/03/21 05:57:45;;;;;;;;;;;11.80;99.90;;;;;;7339385;19;109741;-66
2023/03/21 06:00:12;;;;;;;;;;;11.80;99.90;;;;;;7337383;19;108929;-66
2023/03/21 06:02:39;;;;;;;;;;;11.80;99.90;;;;;;7337135;19;110412;-66
2023/03/21 06:05:07;;;;;;;;;;;11.80;99.90;;;;;;7336839;19;108795;-66
2023/03/21 06:07:35;;;;;;;;;;;11.80;99.90;;;;;;7334538;19;108891;-66
2023/03/21 06:10:03;;;;;;;;;;;11.80;99.90;;;;;;7336816;19;110573;-66
2023/03/21 06:12:31;;;;;;;;;;;11.80;99.90;;;;;;7329102;19;108522;-69
2023/03/21 06:14:58;;;;;;;;;;;11.90;99.90;;;;;;7337252;19;108701;-67
2023/03/21 06:17:25;;;;;;;;;;;11.90;99.90;;;;;;7340359;19;109441;-66
2023/03/21 06:19:52;;;;;;;;;;;11.90;99.90;;;;;;7333011;19;111626;-66
2023/03/21 06:22:19;;;;;;;;;;;11.90;99.90;;;;;;7336049;19;110131;-66
2023/03/21 06:24:47;;;;;;;;;;;11.90;99.90;;;;;;7332995;19;109837;-66
2023/03/21 06:27:14;;;;;;;;;;;11.90;99.90;;;;;;7337375;19;109102;-66
2023/03/21 06:29:41;;;;;;;;;;;11.90;99.90;;;;;;7332280;19;109374;-66
2023/03/21 06:32:08;;;;;;;;;;;11.90;99.90;;;;;;7334170;19;109648;-66
2023/03/21 06:34:35;;;;;;;;;;;11.90;99.90;;;;;;7333228;19;109330;-66
2023/03/21 06:37:05;;;;;;;;;;;11.90;99.90;;;;;;7337127;19;109173;-66
2023/03/21 06:39:32;;;;;;;;;;;12.00;99.90;;;;;;7338226;19;108673;-66
2023/03/21 06:41:59;;;;;;;;;;;12.00;99.90;;;;;;7337837;19;109762;-66
2023/03/21 06:44:26;;;;;;;;;;;11.90;99.90;;;;;;7336000;19;108940;-66
2023/03/21 06:46:53;;;;;;;;;;;12.00;99.90;;;;;;7336244;19;109680;-66
2023/03/21 06:49:21;;;;;;;;;;;12.00;99.90;;;;;;7329240;19;109896;-65
2023/03/21 06:51:47;;;;;;;;;;;12.00;99.90;;;;;;7334167;19;108807;-65
2023/03/21 06:54:16;;;;;;;;;;;12.00;99.90;;;;;;7335175;19;109854;-66
2023/03/21 06:56:44;;;;;;;;;;;12.00;99.90;;;;;;7333528;19;109268;-66
2023/03/21 06:59:11;;;;;;;;;;;12.00;99.90;;;;;;7328990;19;109380;-67
2023/03/21 07:01:38;;;;;;;;;;;11.90;99.90;;;;;;7334574;19;109159;-66
2023/03/21 07:04:05;;;;;;;;;;;11.90;99.90;;;;;;7335773;19;109416;-66
2023/03/21 07:06:33;;;;;;;;;;;11.90;99.90;;;;;;7332876;19;109289;-66
2023/03/21 07:09:01;;;;;;;;;;;11.90;99.90;;;;;;7334127;19;109535;-66
2023/03/21 07:11:32;;;;;;;;;;;11.90;99.90;;;;;;7340824;19;109873;-64
2023/03/21 07:13:59;;;;;;;;;;;11.90;99.90;;;;;;7345560;19;108927;-65
2023/03/21 07:16:26;;;;;;;;;;;11.90;99.90;;;;;;7343340;19;109166;-64
2023/03/21 07:18:54;;;;;;;;;;;11.90;99.90;;;;;;7341407;19;109479;-68
2023/03/21 07:21:21;;;;;;;;;;;11.80;99.90;;;;;;7334130;19;110408;-68
2023/03/21 07:23:49;;;;;;;;;;;11.90;99.90;;;;;;7345410;19;109053;-66
2023/03/21 07:26:17;;;;;;;;;;;11.80;99.90;;;;;;7342712;19;108418;-66
2023/03/21 07:28:44;;;;;;;;;;;11.80;99.90;;;;;;7340737;19;109106;-66
2023/03/21 07:31:12;;;;;;;;;;;11.70;99.90;;;;;;7341945;19;109496;-66
2023/03/21 07:33:40;;;;;;;;;;;11.70;99.90;;;;;;7340947;19;108722;-70
2023/03/21 07:36:14;;;;;;;;;;;11.70;99.90;;;;;;7339206;19;110457;-72
2023/03/21 07:38:42;;;;;;;;;;;11.60;99.90;;;;;;7339596;19;108501;-73
2023/03/21 07:41:09;;;;;;;;;;;11.60;99.90;;;;;;7343840;19;114010;-74
2023/03/21 07:43:36;;;;;;;;;;;11.70;99.90;;;;;;7337929;19;110169;-69
2023/03/21 07:46:05;;;;;;;;;;;11.70;99.90;;;;;;7346931;19;108881;-67
2023/03/21 07:48:32;;;;;;;;;;;11.70;99.90;;;;;;7357594;19;109490;-83
2023/03/21 07:51:01;;;;;;;;;;;11.70;99.90;;;;;;7373358;19;108585;-83
2023/03/21 07:53:28;;;;;;;;;;;11.70;99.90;;;;;;7376311;19;107994;-82
2023/03/21 07:55:55;;;;;;;;;;;11.70;99.90;;;;;;7375215;19;108758;-83
2023/03/21 07:58:23;;;;;;;;;;;11.70;99.90;;;;;;7375101;19;109099;-83
2023/03/21 08:00:50;;;;;;;;;;;11.70;99.90;;;;;;7370227;19;108502;-83
2023/03/21 08:03:18;;;;;;;;;;;11.80;99.90;;;;;;7368946;19;110371;-84
2023/03/21 08:05:45;;;;;;;;;;;11.80;99.90;;;;;;7355474;19;109363;-84
2023/03/21 08:08:12;;;;;;;;;;;11.90;99.90;;;;;;7358897;19;108896;-83
2023/03/21 08:10:41;;;;;;;;;;;11.90;99.90;;;;;;7349575;19;108117;-83
2023/03/21 08:13:08;;;;;;;;;;;12.00;99.90;;;;;;7343005;19;110944;-83
2023/03/21 08:15:36;;;;;;;;;;;12.00;99.90;;;;;;7336893;19;109924;-84
2023/03/21 08:18:06;;;;;;;;;;;12.00;99.90;;;;;;7338130;19;112824;-83
2023/03/21 08:20:33;;;;;;;;;;;12.10;99.90;;;;;;7333331;19;109398;-84
2023/03/21 08:23:00;;;;;;;;;;;12.20;99.90;;;;;;7332860;19;110247;-83
2023/03/21 08:25:27;;;;;;;;;;;12.30;99.90;;;;;;7332921;19;109194;-83
2023/03/21 08:27:57;;;;;;;;;;;12.30;99.90;;;;;;7337087;19;109222;-83
2023/03/21 08:30:26;;;;;;;;;;;12.30;99.90;;;;;;7334316;19;109974;-84
2023/03/21 08:33:00;;;;;;;;;;;12.30;99.90;;;;;;7335263;19;110547;-83
2023/03/21 08:35:28;;;;;;;;;;;12.30;99.90;;;;;;7330394;19;109750;-84
2023/03/21 08:37:55;;;;;;;;;;;12.30;99.90;;;;;;7333196;19;110234;-84
2023/03/21 08:40:22;;;;;;;;;;;12.40;99.90;;;;;;7338524;19;109143;-83
2023/03/21 08:42:49;;;;;;;;;;;12.40;99.90;;;;;;7335052;19;112208;-83
2023/03/21 08:45:17;;;;;;;;;;;12.40;99.90;;;;;;7336185;19;108869;-83
2023/03/21 08:47:44;;;;;;;;;;;12.40;99.90;;;;;;7329384;19;112117;-83
2023/03/21 08:50:14;;;;;;;;;;;12.40;99.90;;;;;;7339975;19;110677;-83
2023/03/21 08:52:41;;;;;;;;;;;12.40;99.90;;;;;;7332979;19;108728;-84
2023/03/21 08:55:09;;;;;;;;;;;12.50;99.90;;;;;;7336173;19;110552;-83
2023/03/21 08:57:36;;;;;;;;;;;12.50;99.90;;;;;;7333121;19;108474;-83
2023/03/21 09:00:12;;;;;;;;;;;12.50;99.90;;;;;;7337153;19;108874;-84
2023/03/21 09:02:40;;;;;;;;;;;12.60;99.90;;;;;;7336315;19;113662;-83
2023/03/21 09:05:09;;;;;;;;;;;12.60;99.90;;;;;;7339206;19;109237;-83
2023/03/21 09:07:37;;;;;;;;;;;12.60;99.90;;;;;;7330367;19;109146;-84
2023/03/21 09:10:05;;;;;;;;;;;12.70;99.90;;;;;;7326918;19;113138;-86
2023/03/21 09:12:49;;;;;;;;;;;12.70;99.90;;;;;;7339682;19;109330;-84
2023/03/21 09:15:17;;;;;;;;;;;12.80;99.90;;;;;;7334514;19;109321;-84
2023/03/21 09:17:47;;;;;;;;;;;12.90;99.90;;;;;;7333652;19;109389;-84
2023/03/21 09:20:17;;;;;;;;;;;12.90;99.90;;;;;;7334014;19;109458;-84
2023/03/21 09:22:48;;;;;;;;;;;13.00;99.90;;;;;;7329237;19;110949;-84
2023/03/21 09:25:15;;;;;;;;;;;13.10;99.90;;;;;;7335213;19;109069;-85
2023/03/21 09:27:44;;;;;;;;;;;13.10;99.90;;;;;;7336455;19;112251;-83
2023/03/21 09:30:12;;;;;;;;;;;13.20;99.90;;;;;;7331827;19;112103;-85
2023/03/21 09:32:40;;;;;;;;;;;13.20;99.90;;;;;;7337985;19;108596;-84
2023/03/21 09:35:10;;;;;;;;;;;13.30;99.90;;;;;;7342070;19;108750;-83
2023/03/21 09:37:41;;;;;;;;;;;13.30;99.90;;;;;;7333520;19;108701;-82
2023/03/21 09:40:30;;;;;;;;;;;13.40;99.90;;;;;;7333992;19;110607;-84
2023/03/21 09:43:01;;;;;;;;;;;13.40;99.90;;;;;;7332450;19;110092;-83
2023/03/21 09:45:33;;;;;;;;;;;13.40;99.90;;;;;;7336712;19;108872;-85
2023/03/21 09:48:01;;;;;;;;;;;13.40;99.90;;;;;;7337459;19;109495;-84
2023/03/21 09:50:30;;;;;;;;;;;13.40;99.90;;;;;;7335850;19;112690;-82
2023/03/21 09:53:19;;;;;;;;;;;13.50;99.90;;;;;;7336993;19;108709;-84
2023/03/21 09:55:46;;;;;;;;;;;13.50;99.90;;;;;;7332566;19;111785;-84
2023/03/21 09:58:27;;;;;;;;;;;13.60;99.90;;;;;;7343391;19;110958;-84
2023/03/21 10:00:59;;;;;;;;;;;13.60;99.90;;;;;;7334049;19;111767;-85
2023/03/21 10:03:30;;;;;;;;;;;13.70;99.90;;;;;;7336013;19;113239;-85
2023/03/21 10:06:00;;;;;;;;;;;13.70;99.90;;;;;;7335839;19;108458;-82
2023/03/21 10:08:30;;;;;;;;;;;13.70;99.90;;;;;;7333452;19;109888;-83
2023/03/21 10:11:00;;;;;;;;;;;13.80;99.90;;;;;;7331991;19;110464;-84
2023/03/21 10:13:32;;;;;;;;;;;13.90;99.90;;;;;;7337334;19;109459;-84
2023/03/21 10:16:00;;;;;;;;;;;14.00;99.90;;;;;;7334610;19;111753;-84
2023/03/21 10:18:29;;;;;;;;;;;14.00;99.90;;;;;;7327787;19;110198;-84
2023/03/21 10:20:56;;;;;;;;;;;14.10;99.90;;;;;;7334989;19;109263;-84
2023/03/21 10:23:27;;;;;;;;;;;14.20;99.90;;;;;;7331221;19;110581;-84
2023/03/21 10:25:57;;;;;;;;;;;14.20;99.90;;;;;;7332074;19;109230;-83
2023/03/21 10:28:26;;;;;;;;;;;14.30;99.90;;;;;;7330601;19;108618;-83
2023/03/21 10:30:54;;;;;;;;;;;14.40;99.90;;;;;;7331175;19;110354;-83
2023/03/21 10:33:25;;;;;;;;;;;14.50;99.90;;;;;;7327141;19;109483;-83
2023/03/21 10:35:54;;;;;;;;;;;14.60;99.90;;;;;;7329470;19;109743;-83
2023/03/21 10:38:23;;;;;;;;;;;14.60;99.90;;;;;;7327827;19;111027;-82
2023/03/21 10:40:50;;;;;;;;;;;14.60;99.90;;;;;;7336228;19;110062;-83
2023/03/21 10:43:20;;;;;;;;;;;14.60;99.90;;;;;;7328109;19;110892;-83
2023/03/21 10:45:47;;;;;;;;;;;14.60;99.90;;;;;;7329466;19;108830;-83
2023/03/21 10:48:15;;;;;;;;;;;14.70;99.90;;;;;;7330031;19;109439;-84
2023/03/21 10:50:45;;;;;;;;;;;14.70;99.90;;;;;;7329489;19;112097;-83
2023/03/21 10:53:30;;;;;;;;;;;14.70;99.90;;;;;;7328018;19;109564;-83
2023/03/21 10:55:59;;;;;;;;;;;14.70;99.90;;;;;;7331121;19;108727;-83
2023/03/21 10:58:28;;;;;;;;;;;14.90;99.90;;;;;;7331540;19;109881;-83
2023/03/21 11:01:00;;;;;;;;;;;14.90;99.90;;;;;;7327090;19;108514;-83
2023/03/21 11:03:32;;;;;;;;;;;15.00;99.90;;;;;;7338889;19;110768;-82
2023/03/21 11:06:05;;;;;;;;;;;15.00;99.90;;;;;;7328303;19;108739;-82
2023/03/21 11:08:46;;;;;;;;;;;15.10;99.90;;;;;;7327308;19;110357;-83
2023/03/21 11:11:23;;;;;;;;;;;15.20;99.90;;;;;;7332819;19;110285;-83
2023/03/21 11:14:05;;;;;;;;;;;15.20;99.90;;;;;;7326790;19;110432;-83
2023/03/21 11:16:38;;;;;;;;;;;15.20;99.90;;;;;;7329351;19;111148;-83
2023/03/21 11:19:16;;;;;;;;;;;15.20;99.90;;;;;;7329698;19;111016;-83
2023/03/21 11:21:44;;;;;;;;;;;15.30;99.90;;;;;;7331732;19;110450;-83
2023/03/21 11:24:13;;;;;;;;;;;15.20;99.90;;;;;;7327557;19;110076;-83
2023/03/21 11:26:43;;;;;;;;;;;15.30;99.90;;;;;;7335522;19;110019;-83
2023/03/21 11:29:30;;;;;;;;;;;15.40;99.90;;;;;;7327787;19;109914;-84
2023/03/21 11:32:00;;;;;;;;;;;15.40;99.90;;;;;;7327134;19;110477;-84
2023/03/21 11:34:31;;;;;;;;;;;15.50;99.90;;;;;;7325849;19;110386;-84
2023/03/21 11:37:00;;;;;;;;;;;15.60;99.90;;;;;;7329498;19;110498;-84
2023/03/21 11:39:38;;;;;;;;;;;15.60;99.90;;;;;;7328012;19;109896;-83
2023/03/21 11:42:23;;;;;;;;;;;15.70;99.90;;;;;;7333326;19;108652;-84
2023/03/21 11:44:56;;;;;;;;;;;15.70;99.90;;;;;;7329505;19;109944;-83
2023/03/21 11:47:23;;;;;;;;;;;15.80;99.90;;;;;;7324267;19;112134;-83
2023/03/21 11:49:50;;;;;;;;;;;15.90;99.90;;;;;;7333058;19;108586;-83
2023/03/21 11:52:40;;;;;;;;;;;15.90;99.90;;;;;;7326002;19;109746;-83
2023/03/21 11:55:30;;;;;;;;;;;16.00;99.90;;;;;;7326753;19;108791;-83
2023/03/21 11:58:03;;;;;;;;;;;16.10;99.90;;;;;;7328743;19;111011;-83
2023/03/21 12:00:42;;;;;;;;;;;16.10;99.90;;;;;;7325960;19;110876;-83
2023/03/21 12:03:18;;;;;;;;;;;16.10;99.90;;;;;;7330638;19;109026;-82
2023/03/21 12:05:54;;;;;;;;;;;16.00;99.90;;;;;;7327446;19;111208;-83
2023/03/21 12:08:24;;;;;;;;;;;15.90;99.90;;;;;;7329830;19;109938;-84
2023/03/21 12:10:57;;;;;;;;;;;15.70;99.90;;;;;;7333049;19;110612;-84
2023/03/21 12:13:23;;;;;;;;;;;15.70;99.90;;;;;;7340295;19;109274;-84
2023/03/21 12:15:57;;;;;;;;;;;15.80;99.90;;;;;;7330236;19;109748;-83
2023/03/21 12:18:27;;;;;;;;;;;15.90;99.90;;;;;;7330752;19;109236;-84
2023/03/21 12:21:10;;;;;;;;;;;16.00;99.90;;;;;;7333393;19;109567;-84
2023/03/21 12:23:50;;;;;;;;;;;16.00;99.90;;;;;;7331719;19;110905;-83
2023/03/21 12:26:17;;;;;;;;;;;16.00;99.90;;;;;;7329487;19;109552;-83
2023/03/21 12:28:47;;;;;;;;;;;16.10;99.90;;;;;;7326040;19;110426;-84
2023/03/21 12:31:33;;;;;;;;;;;16.30;99.90;;;;;;7332222;19;108416;-83
2023/03/21 12:34:07;;;;;;;;;;;16.40;99.90;;;;;;7338680;19;109226;-84
2023/03/21 12:47:40;;;;;;;;;;;16.70;99.90;;;;;;7336464;19;108469;-67
2023/03/21 12:50:13;;;;;;;;;;;16.70;99.90;;;;;;7340905;19;109154;-74
2023/03/21 12:52:52;;;;;;;;;;;16.70;99.90;;;;;;7339391;19;108548;-70
2023/03/21 12:55:33;;;;;;;;;;;16.60;99.90;;;;;;7337665;19;108793;-68
2023/03/21 12:58:00;;;;;;;;;;;16.70;99.90;;;;;;7345887;19;109234;-70
2023/03/21 13:00:32;;;;;;;;;;;16.70;99.90;;;;;;7344811;19;109813;-83
2023/03/21 13:03:11;;;;;;;;;;;16.70;99.90;;;;;;7373895;19;108869;-83
2023/03/21 13:05:47;;;;;;;;;;;16.50;99.90;;;;;;7373135;19;107974;-84
2023/03/21 13:08:21;;;;;;;;;;;16.40;99.90;;;;;;7367870;19;108608;-84
2023/03/21 13:10:48;;;;;;;;;;;16.30;99.90;;;;;;7365067;19;112410;-84
2023/03/21 13:13:32;;;;;;;;;;;16.30;99.90;;;;;;7348332;19;108577;-83
2023/03/21 13:16:16;;;;;;;;;;;16.20;99.90;;;;;;7339990;19;108879;-83
2023/03/21 13:18:59;;;;;;;;;;;16.30;99.90;;;;;;7337484;19;110912;-83
2023/03/21 13:21:45;;;;;;;;;;;16.40;99.90;;;;;;7335816;19;110403;-85
2023/03/21 13:24:18;;;;;;;;;;;16.40;99.90;;;;;;7333617;19;110452;-84
2023/03/21 13:26:50;;;;;;;;;;;16.40;99.90;;;;;;7326576;19;110322;-84
2023/03/21 13:29:22;;;;;;;;;;;16.50;99.90;;;;;;7324182;19;109213;-85
2023/03/21 13:31:50;;;;;;;;;;;16.50;99.90;;;;;;7329365;19;110518;-84
2023/03/21 13:34:21;;;;;;;;;;;16.60;99.90;;;;;;7326968;19;110982;-84
2023/03/21 13:36:49;;;;;;;;;;;16.60;99.90;;;;;;7329653;19;112115;-84
2023/03/21 13:39:24;;;;;;;;;;;16.60;99.90;;;;;;7328876;19;112439;-84
2023/03/21 13:41:52;;;;;;;;;;;16.60;99.90;;;;;;7331504;19;110465;-84
2023/03/21 13:44:21;;;;;;;;;;;16.80;99.90;;;;;;7334935;19;109628;-84
2023/03/21 13:47:15;;;;;;;;;;;16.70;99.90;;;;;;7331836;19;110217;-84
2023/03/21 13:49:46;;;;;;;;;;;16.60;99.90;;;;;;7338344;19;109703;-84
2023/03/21 13:52:12;;;;;;;;;;;16.70;99.90;;;;;;7331966;19;110436;-84
2023/03/21 13:54:44;;;;;;;;;;;16.80;99.90;;;;;;7329741;19;110763;-83
2023/03/21 13:57:28;;;;;;;;;;;16.80;99.90;;;;;;7326736;19;110171;-84
2023/03/21 14:00:16;;;;;;;;;;;16.80;99.90;;;;;;7331938;19;110347;-83
2023/03/21 14:02:52;;;;;;;;;;;16.80;99.90;;;;;;7325938;19;108599;-83
2023/03/21 14:05:23;;;;;;;;;;;16.60;99.90;;;;;;7329387;19;111985;-84
2023/03/21 14:07:54;;;;;;;;;;;16.50;99.90;;;;;;7331337;19;111697;-83
2023/03/21 14:10:38;;;;;;;;;;;16.50;99.90;;;;;;7327464;19;109747;-83
2023/03/21 14:13:06;;;;;;;;;;;16.50;99.90;;;;;;7328639;19;110473;-84
2023/03/21 14:15:37;;;;;;;;;;;16.40;99.90;;;;;;7326167;19;109342;-84
2023/03/21 14:18:16;;;;;;;;;;;16.40;99.90;;;;;;7324760;19;111177;-83
2023/03/21 14:21:00;;;;;;;;;;;16.30;99.90;;;;;;7329162;19;110900;-83
2023/03/21 14:23:30;;;;;;;;;;;16.30;99.90;;;;;;7331457;19;109391;-83
2023/03/21 14:25:57;;;;;;;;;;;16.30;99.90;;;;;;7329682;19;112241;-83
2023/03/21 14:28:27;;;;;;;;;;;16.30;99.90;;;;;;7324606;19;109434;-83
2023/03/21 14:30:55;;;;;;;;;;;16.20;99.90;;;;;;7336654;19;109560;-83
2023/03/21 14:33:27;;;;;;;;;;;16.20;99.90;;;;;;7326988;19;110334;-83
2023/03/21 14:35:56;;;;;;;;;;;16.20;99.90;;;;;;7333290;19;109060;-83
2023/03/21 14:38:25;;;;;;;;;;;16.20;99.90;;;;;;7332548;19;112110;-83
2023/03/21 14:40:54;;;;;;;;;;;16.10;99.90;;;;;;7332278;19;112289;-83